sensor_id;sensor_type;location;lat;lon;timestamp;temperature;humidity
42479;DHT22;28110;47.080;9.476;2023-03-02T00:01:54;2.10;99.90
42479;DHT22;28110;47.080;9.476;2023-03-02T00:04:28;2.10;99.90
42479;DHT22;28110;47.080;9.476;2023-03-02T00:06:58;2.00;99.90
42479;DHT22;28110;47.080;9.476;2023-03-02T00:09:24;1.90;99.90
42479;DHT22;28110;47.080;9.476;2023-03-02T00:11:50;1.90;99.90
42479;DHT22;28110;47.080;9.476;2023-03-02T00:14:16;1.90;99.90
42479;DHT22;28110;47.080;9.476;2023-03-02T00:16:41;2.00;99.90
42479;DHT22;28110;47.080;9.476;2023-03-02T00:19:07;2.00;99.90
42479;DHT22;28110;47.080;9.476;2023-03-02T00:21:33;2.10;99.90
42479;DHT22;28110;47.080;9.476;2023-03-02T00:23:58;2.10;99.90
42479;DHT22;28110;47.080;9.476;2023-03-02T00:26:24;2.00;99.90
42479;DHT22;28110;47.080;9.476;2023-03-02T00:28:49;2.10;99.90
42479;DHT22;28110;47.080;9.476;2023-03-02T00:31:15;2.10;99.90
42479;DHT22;28110;47.080;9.476;2023-03-02T00:33:41;2.00;99.90
42479;DHT22;28110;47.080;9.476;2023-03-02T00:36:17;2.00;99.90
42479;DHT22;28110;47.080;9.476;2023-03-02T00:38:43;2.00;99.90
42479;DHT22;28110;47.080;9.476;2023-03-02T00:41:10;2.10;99.90
42479;DHT22;28110;47.080;9.476;2023-03-02T00:43:36;2.10;99.90
42479;DHT22;28110;47.080;9.476;2023-03-02T00:46:17;2.00;99.90
42479;DHT22;28110;47.080;9.476;2023-03-02T00:48:43;2.10;99.90
42479;DHT22;28110;47.080;9.476;2023-03-02T00:51:09;2.20;99.90
42479;DHT22;28110;47.080;9.476;2023-03-02T00:53:36;2.30;99.90
42479;DHT22;28110;47.080;9.476;2023-03-02T00:56:01;2.30;99.90
42479;DHT22;28110;47.080;9.476;2023-03-02T00:58:28;2.40;99.90
42479;DHT22;28110;47.080;9.476;2023-03-02T01:00:54;2.30;99.90
42479;DHT22;28110;47.080;9.476;2023-03-02T01:03:19;2.30;99.90
42479;DHT22;28110;47.080;9.476;2023-03-02T01:05:46;2.20;99.90
42479;DHT22;28110;47.080;9.476;2023-03-02T01:08:12;2.30;99.90
42479;DHT22;28110;47.080;9.476;2023-03-02T01:10:38;2.30;99.90
42479;DHT22;28110;47.080;9.476;2023-03-02T01:13:04;2.40;99.90
42479;DHT22;28110;47.080;9.476;2023-03-02T01:15:30;2.50;99.90
42479;DHT22;28110;47.080;9.476;2023-03-02T01:17:58;2.50;99.90
42479;DHT22;28110;47.080;9.476;2023-03-02T01:20:23;2.60;99.90
42479;DHT22;28110;47.080;9.476;2023-03-02T01:22:49;2.50;99.90
42479;DHT22;28110;47.080;9.476;2023-03-02T01:25:15;2.50;99.90
42479;DHT22;28110;47.080;9.476;2023-03-02T01:27:40;2.40;99.90
42479;DHT22;28110;47.080;9.476;2023-03-02T01:30:06;2.40;99.90
42479;DHT22;28110;47.080;9.476;2023-03-02T01:32:32;2.50;99.90
42479;DHT22;28110;47.080;9.476;2023-03-02T01:34:57;2.50;99.90
42479;DHT22;28110;47.080;9.476;2023-03-02T01:37:23;2.50;99.90
42479;DHT22;28110;47.080;9.476;2023-03-02T01:39:49;2.60;99.90
42479;DHT22;28110;47.080;9.476;2023-03-02T01:42:15;2.60;99.90
42479;DHT22;28110;47.080;9.476;2023-03-02T01:44:44;2.60;99.90
42479;DHT22;28110;47.080;9.476;2023-03-02T01:47:28;2.60;99.90
42479;DHT22;28110;47.080;9.476;2023-03-02T01:50:04;2.60;99.90
42479;DHT22;28110;47.080;9.476;2023-03-02T01:52:32;2.60;99.90
42479;DHT22;28110;47.080;9.476;2023-03-02T01:55:02;2.70;99.90
42479;DHT22;28110;47.080;9.476;2023-03-02T01:57:31;2.70;99.90
42479;DHT22;28110;47.080;9.476;2023-03-02T02:00:01;2.70;99.90
42479;DHT22;28110;47.080;9.476;2023-03-02T02:02:33;2.70;99.90
42479;DHT22;28110;47.080;9.476;2023-03-02T02:04:59;2.70;99.90
42479;DHT22;28110;47.080;9.476;2023-03-02T02:07:25;2.70;99.90
42479;DHT22;28110;47.080;9.476;2023-03-02T02:09:52;2.70;99.90
42479;DHT22;28110;47.080;9.476;2023-03-02T02:12:20;2.70;99.90
42479;DHT22;28110;47.080;9.476;2023-03-02T02:14:47;2.80;99.90
42479;DHT22;28110;47.080;9.476;2023-03-02T02:17:14;2.70;99.90
42479;DHT22;28110;47.080;9.476;2023-03-02T02:20:11;2.70;99.90
42479;DHT22;28110;47.080;9.476;2023-03-02T02:22:54;2.70;99.90
42479;DHT22;28110;47.080;9.476;2023-03-02T02:28:03;2.70;99.90
42479;DHT22;28110;47.080;9.476;2023-03-02T02:30:33;2.60;99.90
42479;DHT22;28110;47.080;9.476;2023-03-02T02:33:00;2.60;99.90
42479;DHT22;28110;47.080;9.476;2023-03-02T02:35:27;2.60;99.90
42479;DHT22;28110;47.080;9.476;2023-03-02T02:37:56;2.50;99.90
42479;DHT22;28110;47.080;9.476;2023-03-02T02:40:55;2.40;99.90
42479;DHT22;28110;47.080;9.476;2023-03-02T02:43:22;2.50;99.90
42479;DHT22;28110;47.080;9.476;2023-03-02T02:45:54;2.50;99.90
42479;DHT22;28110;47.080;9.476;2023-03-02T02:48:23;2.60;99.90
42479;DHT22;28110;47.080;9.476;2023-03-02T02:50:49;2.70;99.90
42479;DHT22;28110;47.080;9.476;2023-03-02T02:53:22;2.60;99.90
42479;DHT22;28110;47.080;9.476;2023-03-02T02:55:52;2.60;99.90
42479;DHT22;28110;47.080;9.476;2023-03-02T03:01:06;2.60;99.90
42479;DHT22;28110;47.080;9.476;2023-03-02T03:03:36;2.60;99.90
42479;DHT22;28110;47.080;9.476;2023-03-02T03:06:06;2.60;99.90
42479;DHT22;28110;47.080;9.476;2023-03-02T03:11:12;2.70;99.90
42479;DHT22;28110;47.080;9.476;2023-03-02T03:13:40;2.60;99.90
42479;DHT22;28110;47.080;9.476;2023-03-02T03:16:09;2.70;99.90
42479;DHT22;28110;47.080;9.476;2023-03-02T03:18:35;2.70;99.90
42479;DHT22;28110;47.080;9.476;2023-03-02T03:21:01;2.60;99.90
42479;DHT22;28110;47.080;9.476;2023-03-02T03:23:26;2.60;99.90
42479;DHT22;28110;47.080;9.476;2023-03-02T03:25:52;2.50;99.90
42479;DHT22;28110;47.080;9.476;2023-03-02T03:28:17;2.60;99.90
42479;DHT22;28110;47.080;9.476;2023-03-02T03:30:43;2.60;99.90
42479;DHT22;28110;47.080;9.476;2023-03-02T03:33:09;2.50;99.90
42479;DHT22;28110;47.080;9.476;2023-03-02T03:35:38;2.50;99.90
42479;DHT22;28110;47.080;9.476;2023-03-02T03:38:05;2.60;99.90
42479;DHT22;28110;47.080;9.476;2023-03-02T03:40:32;2.60;99.90
42479;DHT22;28110;47.080;9.476;2023-03-02T03:43:01;2.60;99.90
42479;DHT22;28110;47.080;9.476;2023-03-02T03:45:27;2.60;99.90
42479;DHT22;28110;47.080;9.476;2023-03-02T03:47:52;2.50;99.90
42479;DHT22;28110;47.080;9.476;2023-03-02T03:50:18;2.60;99.90
42479;DHT22;28110;47.080;9.476;2023-03-02T03:52:44;2.60;99.90
42479;DHT22;28110;47.080;9.476;2023-03-02T03:55:09;2.60;99.90
42479;DHT22;28110;47.080;9.476;2023-03-02T03:57:35;2.60;99.90
42479;DHT22;28110;47.080;9.476;2023-03-02T04:00:03;2.50;99.90
42479;DHT22;28110;47.080;9.476;2023-03-02T04:02:30;2.40;99.90
42479;DHT22;28110;47.080;9.476;2023-03-02T04:04:56;2.40;99.90
42479;DHT22;28110;47.080;9.476;2023-03-02T04:07:27;2.30;99.90
42479;DHT22;28110;47.080;9.476;2023-03-02T04:09:53;2.20;99.90
42479;DHT22;28110;47.080;9.476;2023-03-02T04:12:28;2.20;99.90
42479;DHT22;28110;47.080;9.476;2023-03-02T04:14:53;2.20;99.90
42479;DHT22;28110;47.080;9.476;2023-03-02T04:17:19;2.20;99.90
42479;DHT22;28110;47.080;9.476;2023-03-02T04:19:44;2.10;99.90
42479;DHT22;28110;47.080;9.476;2023-03-02T04:22:10;2.00;99.90
42479;DHT22;28110;47.080;9.476;2023-03-02T04:24:35;1.90;99.90
42479;DHT22;28110;47.080;9.476;2023-03-02T04:27:01;1.80;99.90
42479;DHT22;28110;47.080;9.476;2023-03-02T04:29:27;1.70;99.90
42479;DHT22;28110;47.080;9.476;2023-03-02T04:31:53;1.70;99.90
42479;DHT22;28110;47.080;9.476;2023-03-02T04:34:18;1.60;99.90
42479;DHT22;28110;47.080;9.476;2023-03-02T04:36:44;1.60;99.90
42479;DHT22;28110;47.080;9.476;2023-03-02T04:39:12;1.50;99.90
42479;DHT22;28110;47.080;9.476;2023-03-02T04:41:38;1.50;99.90
42479;DHT22;28110;47.080;9.476;2023-03-02T04:44:03;1.40;99.90
42479;DHT22;28110;47.080;9.476;2023-03-02T04:46:29;1.50;99.90
42479;DHT22;28110;47.080;9.476;2023-03-02T04:48:55;1.40;99.90
42479;DHT22;28110;47.080;9.476;2023-03-02T04:51:24;1.50;99.90
42479;DHT22;28110;47.080;9.476;2023-03-02T04:53:52;1.40;99.90
42479;DHT22;28110;47.080;9.476;2023-03-02T04:56:18;1.40;99.90
42479;DHT22;28110;47.080;9.476;2023-03-02T04:58:43;1.30;99.90
42479;DHT22;28110;47.080;9.476;2023-03-02T05:01:09;1.30;99.90
42479;DHT22;28110;47.080;9.476;2023-03-02T05:03:35;1.30;99.90
42479;DHT22;28110;47.080;9.476;2023-03-02T05:06:01;1.30;99.90
42479;DHT22;28110;47.080;9.476;2023-03-02T05:08:30;1.30;99.90
42479;DHT22;28110;47.080;9.476;2023-03-02T05:10:56;1.30;99.90
42479;DHT22;28110;47.080;9.476;2023-03-02T05:13:23;1.30;99.90
42479;DHT22;28110;47.080;9.476;2023-03-02T05:15:49;1.30;99.90
42479;DHT22;28110;47.080;9.476;2023-03-02T05:18:16;1.30;99.90
42479;DHT22;28110;47.080;9.476;2023-03-02T05:20:42;1.30;99.90
42479;DHT22;28110;47.080;9.476;2023-03-02T05:23:09;1.30;99.90
42479;DHT22;28110;47.080;9.476;2023-03-02T05:25:37;1.30;99.90
42479;DHT22;28110;47.080;9.476;2023-03-02T05:28:03;1.20;99.90
42479;DHT22;28110;47.080;9.476;2023-03-02T05:30:29;1.20;99.90
42479;DHT22;28110;47.080;9.476;2023-03-02T05:32:57;1.20;99.90
42479;DHT22;28110;47.080;9.476;2023-03-02T05:35:23;1.30;99.90
42479;DHT22;28110;47.080;9.476;2023-03-02T05:37:49;1.30;99.90
42479;DHT22;28110;47.080;9.476;2023-03-02T05:40:18;1.30;99.90
42479;DHT22;28110;47.080;9.476;2023-03-02T05:42:44;1.30;99.90
42479;DHT22;28110;47.080;9.476;2023-03-02T05:45:20;1.30;99.90
42479;DHT22;28110;47.080;9.476;2023-03-02T05:47:45;1.30;99.90
42479;DHT22;28110;47.080;9.476;2023-03-02T05:50:12;1.20;99.90
42479;DHT22;28110;47.080;9.476;2023-03-02T05:52:37;1.20;99.90
42479;DHT22;28110;47.080;9.476;2023-03-02T05:55:03;1.10;99.90
42479;DHT22;28110;47.080;9.476;2023-03-02T05:57:29;1.10;99.90
42479;DHT22;28110;47.080;9.476;2023-03-02T05:59:55;1.00;99.90
42479;DHT22;28110;47.080;9.476;2023-03-02T06:02:20;1.00;99.90
42479;DHT22;28110;47.080;9.476;2023-03-02T06:04:46;1.00;99.90
42479;DHT22;28110;47.080;9.476;2023-03-02T06:07:11;0.90;99.90
42479;DHT22;28110;47.080;9.476;2023-03-02T06:09:38;1.00;99.90
42479;DHT22;28110;47.080;9.476;2023-03-02T06:12:05;1.00;99.90
42479;DHT22;28110;47.080;9.476;2023-03-02T06:14:31;1.00;99.90
42479;DHT22;28110;47.080;9.476;2023-03-02T06:16:56;1.00;99.90
42479;DHT22;28110;47.080;9.476;2023-03-02T06:19:22;1.10;99.90
42479;DHT22;28110;47.080;9.476;2023-03-02T06:21:47;1.00;99.90
42479;DHT22;28110;47.080;9.476;2023-03-02T06:24:13;1.00;99.90
42479;DHT22;28110;47.080;9.476;2023-03-02T06:26:38;1.10;99.90
42479;DHT22;28110;47.080;9.476;2023-03-02T06:29:04;1.10;99.90
42479;DHT22;28110;47.080;9.476;2023-03-02T06:31:30;1.10;99.90
42479;DHT22;28110;47.080;9.476;2023-03-02T06:33:56;1.10;99.90
42479;DHT22;28110;47.080;9.476;2023-03-02T06:36:21;1.10;99.90
42479;DHT22;28110;47.080;9.476;2023-03-02T06:38:47;1.10;99.90
42479;DHT22;28110;47.080;9.476;2023-03-02T06:41:13;1.10;99.90
42479;DHT22;28110;47.080;9.476;2023-03-02T06:43:39;1.20;99.90
42479;DHT22;28110;47.080;9.476;2023-03-02T06:46:04;1.20;99.90
42479;DHT22;28110;47.080;9.476;2023-03-02T06:48:30;1.20;99.90
42479;DHT22;28110;47.080;9.476;2023-03-02T06:50:56;1.30;99.90
42479;DHT22;28110;47.080;9.476;2023-03-02T06:53:21;1.30;99.90
42479;DHT22;28110;47.080;9.476;2023-03-02T06:55:48;1.30;99.90
42479;DHT22;28110;47.080;9.476;2023-03-02T06:58:13;1.30;99.90
42479;DHT22;28110;47.080;9.476;2023-03-02T07:00:39;1.40;99.90
42479;DHT22;28110;47.080;9.476;2023-03-02T07:03:05;1.40;99.90
42479;DHT22;28110;47.080;9.476;2023-03-02T07:05:30;1.40;99.90
42479;DHT22;28110;47.080;9.476;2023-03-02T07:08:00;1.40;99.90
42479;DHT22;28110;47.080;9.476;2023-03-02T07:10:25;1.40;99.90
42479;DHT22;28110;47.080;9.476;2023-03-02T07:12:51;1.40;99.90
42479;DHT22;28110;47.080;9.476;2023-03-02T07:15:18;1.40;99.90
42479;DHT22;28110;47.080;9.476;2023-03-02T07:17:44;1.40;99.90
42479;DHT22;28110;47.080;9.476;2023-03-02T07:20:12;1.50;99.90
42479;DHT22;28110;47.080;9.476;2023-03-02T07:22:39;1.50;99.90
42479;DHT22;28110;47.080;9.476;2023-03-02T07:25:06;1.50;99.90
42479;DHT22;28110;47.080;9.476;2023-03-02T07:27:31;1.60;99.90
42479;DHT22;28110;47.080;9.476;2023-03-02T07:29:57;1.60;99.90
42479;DHT22;28110;47.080;9.476;2023-03-02T07:32:23;1.60;99.90
42479;DHT22;28110;47.080;9.476;2023-03-02T07:34:48;1.70;99.90
42479;DHT22;28110;47.080;9.476;2023-03-02T07:37:14;1.60;99.90
42479;DHT22;28110;47.080;9.476;2023-03-02T07:39:39;1.70;99.90
42479;DHT22;28110;47.080;9.476;2023-03-02T07:42:05;1.80;99.90
42479;DHT22;28110;47.080;9.476;2023-03-02T07:44:33;1.90;99.90
42479;DHT22;28110;47.080;9.476;2023-03-02T07:46:58;1.90;99.90
42479;DHT22;28110;47.080;9.476;2023-03-02T07:49:24;2.00;99.90
42479;DHT22;28110;47.080;9.476;2023-03-02T07:51:49;2.00;99.90
42479;DHT22;28110;47.080;9.476;2023-03-02T07:54:15;2.10;99.90
42479;DHT22;28110;47.080;9.476;2023-03-02T07:56:40;2.10;99.90
42479;DHT22;28110;47.080;9.476;2023-03-02T07:59:06;2.10;99.90
42479;DHT22;28110;47.080;9.476;2023-03-02T08:01:32;2.00;99.90
42479;DHT22;28110;47.080;9.476;2023-03-02T08:03:57;2.10;99.90
42479;DHT22;28110;47.080;9.476;2023-03-02T08:06:23;2.30;99.90
42479;DHT22;28110;47.080;9.476;2023-03-02T08:08:48;2.40;99.90
42479;DHT22;28110;47.080;9.476;2023-03-02T08:11:16;2.60;99.90
42479;DHT22;28110;47.080;9.476;2023-03-02T08:13:42;2.70;99.90
42479;DHT22;28110;47.080;9.476;2023-03-02T08:16:10;2.90;99.90
42479;DHT22;28110;47.080;9.476;2023-03-02T08:18:37;3.00;99.90
42479;DHT22;28110;47.080;9.476;2023-03-02T08:21:04;3.10;99.90
42479;DHT22;28110;47.080;9.476;2023-03-02T08:23:35;3.20;99.90
42479;DHT22;28110;47.080;9.476;2023-03-02T08:26:00;3.20;99.90
42479;DHT22;28110;47.080;9.476;2023-03-02T08:28:26;3.40;99.90
42479;DHT22;28110;47.080;9.476;2023-03-02T08:30:58;3.50;99.90
42479;DHT22;28110;47.080;9.476;2023-03-02T08:33:25;3.50;99.90
42479;DHT22;28110;47.080;9.476;2023-03-02T08:36:00;3.60;99.90
42479;DHT22;28110;47.080;9.476;2023-03-02T08:38:27;3.70;99.90
42479;DHT22;28110;47.080;9.476;2023-03-02T08:40:53;3.70;99.90
42479;DHT22;28110;47.080;9.476;2023-03-02T08:43:20;3.80;99.90
42479;DHT22;28110;47.080;9.476;2023-03-02T08:45:50;3.90;99.90
42479;DHT22;28110;47.080;9.476;2023-03-02T08:48:16;4.00;99.90
42479;DHT22;28110;47.080;9.476;2023-03-02T08:50:41;4.10;99.90
42479;DHT22;28110;47.080;9.476;2023-03-02T08:53:07;4.10;99.90
42479;DHT22;28110;47.080;9.476;2023-03-02T08:55:36;4.10;99.90
42479;DHT22;28110;47.080;9.476;2023-03-02T08:58:02;4.10;99.90
42479;DHT22;28110;47.080;9.476;2023-03-02T09:00:28;4.10;99.90
42479;DHT22;28110;47.080;9.476;2023-03-02T09:02:54;4.10;99.90
42479;DHT22;28110;47.080;9.476;2023-03-02T09:05:19;4.00;99.90
42479;DHT22;28110;47.080;9.476;2023-03-02T09:07:45;4.00;99.90
42479;DHT22;28110;47.080;9.476;2023-03-02T09:10:10;4.00;99.90
42479;DHT22;28110;47.080;9.476;2023-03-02T09:12:36;4.20;99.90
42479;DHT22;28110;47.080;9.476;2023-03-02T09:15:01;4.20;99.90
42479;DHT22;28110;47.080;9.476;2023-03-02T09:17:27;4.10;99.90
42479;DHT22;28110;47.080;9.476;2023-03-02T09:19:53;4.10;99.90
42479;DHT22;28110;47.080;9.476;2023-03-02T09:22:18;4.10;99.90
42479;DHT22;28110;47.080;9.476;2023-03-02T09:24:44;4.10;99.90
42479;DHT22;28110;47.080;9.476;2023-03-02T09:27:09;4.20;99.90
42479;DHT22;28110;47.080;9.476;2023-03-02T09:29:35;4.20;99.90
42479;DHT22;28110;47.080;9.476;2023-03-02T09:32:00;4.30;99.90
42479;DHT22;28110;47.080;9.476;2023-03-02T09:34:26;4.30;99.90
42479;DHT22;28110;47.080;9.476;2023-03-02T09:36:51;4.30;99.90
42479;DHT22;28110;47.080;9.476;2023-03-02T09:39:17;4.20;99.90
42479;DHT22;28110;47.080;9.476;2023-03-02T09:42:07;4.20;99.90
42479;DHT22;28110;47.080;9.476;2023-03-02T09:49:59;4.20;99.90
42479;DHT22;28110;47.080;9.476;2023-03-02T09:55:28;4.00;99.90
42479;DHT22;28110;47.080;9.476;2023-03-02T09:57:56;4.10;99.90
42479;DHT22;28110;47.080;9.476;2023-03-02T10:00:34;4.10;99.90
42479;DHT22;28110;47.080;9.476;2023-03-02T10:03:22;4.20;99.90
42479;DHT22;28110;47.080;9.476;2023-03-02T10:05:52;4.20;99.90
42479;DHT22;28110;47.080;9.476;2023-03-02T10:08:23;4.30;99.90
42479;DHT22;28110;47.080;9.476;2023-03-02T10:13:47;4.40;99.90
42479;DHT22;28110;47.080;9.476;2023-03-02T10:21:47;4.50;99.90
42479;DHT22;28110;47.080;9.476;2023-03-02T10:26:49;4.60;99.90
42479;DHT22;28110;47.080;9.476;2023-03-02T10:29:28;4.60;99.90
42479;DHT22;28110;47.080;9.476;2023-03-02T10:32:42;4.70;99.90
42479;DHT22;28110;47.080;9.476;2023-03-02T10:34:48;4.70;99.90
42479;DHT22;28110;47.080;9.476;2023-03-02T10:37:21;4.70;99.90
42479;DHT22;28110;47.080;9.476;2023-03-02T10:39:52;4.60;99.90
42479;DHT22;28110;47.080;9.476;2023-03-02T10:42:21;4.70;99.90
42479;DHT22;28110;47.080;9.476;2023-03-02T10:44:53;4.80;99.90
42479;DHT22;28110;47.080;9.476;2023-03-02T10:47:25;4.80;99.90
42479;DHT22;28110;47.080;9.476;2023-03-02T10:49:52;4.70;99.90
42479;DHT22;28110;47.080;9.476;2023-03-02T10:52:20;4.70;99.90
42479;DHT22;28110;47.080;9.476;2023-03-02T10:54:46;4.80;99.90
42479;DHT22;28110;47.080;9.476;2023-03-02T10:57:41;4.90;99.90
42479;DHT22;28110;47.080;9.476;2023-03-02T11:00:23;4.90;99.90
42479;DHT22;28110;47.080;9.476;2023-03-02T11:03:01;4.90;99.90
42479;DHT22;28110;47.080;9.476;2023-03-02T11:05:35;5.00;99.90
42479;DHT22;28110;47.080;9.476;2023-03-02T11:08:04;5.00;99.90
42479;DHT22;28110;47.080;9.476;2023-03-02T11:10:35;5.10;99.90
42479;DHT22;28110;47.080;9.476;2023-03-02T11:13:14;5.10;99.90
42479;DHT22;28110;47.080;9.476;2023-03-02T11:15:48;5.00;99.90
42479;DHT22;28110;47.080;9.476;2023-03-02T11:18:20;5.00;99.90
42479;DHT22;28110;47.080;9.476;2023-03-02T11:20:51;5.00;99.90
42479;DHT22;28110;47.080;9.476;2023-03-02T11:23:40;4.90;99.90
42479;DHT22;28110;47.080;9.476;2023-03-02T11:26:19;4.90;99.90
42479;DHT22;28110;47.080;9.476;2023-03-02T11:29:08;4.90;99.90
42479;DHT22;28110;47.080;9.476;2023-03-02T11:37:25;4.80;99.90
42479;DHT22;28110;47.080;9.476;2023-03-02T11:40:20;4.80;99.90
42479;DHT22;28110;47.080;9.476;2023-03-02T11:42:48;4.90;99.90
42479;DHT22;28110;47.080;9.476;2023-03-02T11:47:54;4.90;99.90
42479;DHT22;28110;47.080;9.476;2023-03-02T11:50:20;5.00;99.90
42479;DHT22;28110;47.080;9.476;2023-03-02T11:52:50;5.10;99.90
42479;DHT22;28110;47.080;9.476;2023-03-02T11:55:19;5.10;99.90
42479;DHT22;28110;47.080;9.476;2023-03-02T11:57:51;5.20;99.90
42479;DHT22;28110;47.080;9.476;2023-03-02T12:03:00;5.20;99.90
42479;DHT22;28110;47.080;9.476;2023-03-02T12:05:28;5.30;99.90
42479;DHT22;28110;47.080;9.476;2023-03-02T12:08:28;5.30;99.90
42479;DHT22;28110;47.080;9.476;2023-03-02T12:11:01;5.30;99.90
42479;DHT22;28110;47.080;9.476;2023-03-02T12:13:30;5.30;99.90
42479;DHT22;28110;47.080;9.476;2023-03-02T12:15:57;5.20;99.90
42479;DHT22;28110;47.080;9.476;2023-03-02T12:21:07;5.20;99.90
42479;DHT22;28110;47.080;9.476;2023-03-02T12:23:40;5.20;99.90
42479;DHT22;28110;47.080;9.476;2023-03-02T12:28:56;5.30;99.90
42479;DHT22;28110;47.080;9.476;2023-03-02T12:31:22;5.50;99.90
42479;DHT22;28110;47.080;9.476;2023-03-02T12:33:50;5.50;99.90
42479;DHT22;28110;47.080;9.476;2023-03-02T12:36:31;5.50;99.90
42479;DHT22;28110;47.080;9.476;2023-03-02T12:44:47;5.70;99.90
42479;DHT22;28110;47.080;9.476;2023-03-02T12:47:19;5.80;99.90
42479;DHT22;28110;47.080;9.476;2023-03-02T12:49:55;5.90;99.90
42479;DHT22;28110;47.080;9.476;2023-03-02T12:52:30;6.00;99.90
42479;DHT22;28110;47.080;9.476;2023-03-02T12:55:16;6.00;99.90
42479;DHT22;28110;47.080;9.476;2023-03-02T12:57:50;6.10;99.90
42479;DHT22;28110;47.080;9.476;2023-03-02T13:00:20;6.10;99.90
42479;DHT22;28110;47.080;9.476;2023-03-02T13:02:51;6.10;99.90
42479;DHT22;28110;47.080;9.476;2023-03-02T13:05:23;6.20;99.90
42479;DHT22;28110;47.080;9.476;2023-03-02T13:07:59;6.30;99.90
42479;DHT22;28110;47.080;9.476;2023-03-02T13:13:20;6.30;99.90
42479;DHT22;28110;47.080;9.476;2023-03-02T13:15:57;6.30;99.90
42479;DHT22;28110;47.080;9.476;2023-03-02T13:18:26;6.40;99.90
42479;DHT22;28110;47.080;9.476;2023-03-02T13:20:53;6.30;99.90
42479;DHT22;28110;47.080;9.476;2023-03-02T13:23:19;6.40;99.90
42479;DHT22;28110;47.080;9.476;2023-03-02T13:25:51;6.50;99.90
42479;DHT22;28110;47.080;9.476;2023-03-02T13:28:30;6.50;99.90
42479;DHT22;28110;47.080;9.476;2023-03-02T13:30:59;6.50;99.90
42479;DHT22;28110;47.080;9.476;2023-03-02T13:33:26;6.60;99.90
42479;DHT22;28110;47.080;9.476;2023-03-02T13:35:52;6.40;99.90
42479;DHT22;28110;47.080;9.476;2023-03-02T13:38:19;6.40;99.90
42479;DHT22;28110;47.080;9.476;2023-03-02T13:40:50;6.50;99.90
42479;DHT22;28110;47.080;9.476;2023-03-02T13:45:56;6.40;99.90
42479;DHT22;28110;47.080;9.476;2023-03-02T13:48:22;6.40;99.90
42479;DHT22;28110;47.080;9.476;2023-03-02T13:50:54;6.40;99.90
42479;DHT22;28110;47.080;9.476;2023-03-02T13:53:20;6.40;99.90
42479;DHT22;28110;47.080;9.476;2023-03-02T13:55:47;6.30;99.90
42479;DHT22;28110;47.080;9.476;2023-03-02T13:58:15;6.40;99.90
42479;DHT22;28110;47.080;9.476;2023-03-02T14:00:42;6.30;99.90
42479;DHT22;28110;47.080;9.476;2023-03-02T14:05:48;6.30;99.90
42479;DHT22;28110;47.080;9.476;2023-03-02T14:08:14;6.20;99.90
42479;DHT22;28110;47.080;9.476;2023-03-02T14:10:39;6.30;99.90
42479;DHT22;28110;47.080;9.476;2023-03-02T14:13:09;6.30;99.90
42479;DHT22;28110;47.080;9.476;2023-03-02T14:15:40;6.40;99.90
42479;DHT22;28110;47.080;9.476;2023-03-02T14:21:16;6.30;99.90
42479;DHT22;28110;47.080;9.476;2023-03-02T14:23:42;6.20;99.90
42479;DHT22;28110;47.080;9.476;2023-03-02T14:29:29;6.20;99.90
42479;DHT22;28110;47.080;9.476;2023-03-02T14:32:00;6.10;99.90
42479;DHT22;28110;47.080;9.476;2023-03-02T14:34:29;6.10;99.90
42479;DHT22;28110;47.080;9.476;2023-03-02T14:36:57;6.10;99.90
42479;DHT22;28110;47.080;9.476;2023-03-02T14:39:36;6.00;99.90
42479;DHT22;28110;47.080;9.476;2023-03-02T14:42:10;6.00;99.90
42479;DHT22;28110;47.080;9.476;2023-03-02T14:44:36;5.90;99.90
42479;DHT22;28110;47.080;9.476;2023-03-02T14:47:02;5.80;99.90
42479;DHT22;28110;47.080;9.476;2023-03-02T14:49:27;5.80;99.90
42479;DHT22;28110;47.080;9.476;2023-03-02T14:52:05;5.80;99.90
42479;DHT22;28110;47.080;9.476;2023-03-02T14:54:39;5.80;99.90
42479;DHT22;28110;47.080;9.476;2023-03-02T14:57:22;5.60;99.90
42479;DHT22;28110;47.080;9.476;2023-03-02T14:59:50;5.50;99.90
42479;DHT22;28110;47.080;9.476;2023-03-02T15:02:16;5.40;99.90
42479;DHT22;28110;47.080;9.476;2023-03-02T15:04:41;5.40;99.90
42479;DHT22;28110;47.080;9.476;2023-03-02T15:07:11;5.40;99.90
42479;DHT22;28110;47.080;9.476;2023-03-02T15:09:38;5.30;99.90
42479;DHT22;28110;47.080;9.476;2023-03-02T15:12:03;5.30;99.90
42479;DHT22;28110;47.080;9.476;2023-03-02T15:14:29;5.30;99.90
42479;DHT22;28110;47.080;9.476;2023-03-02T15:16:54;5.30;99.90
42479;DHT22;28110;47.080;9.476;2023-03-02T15:19:20;5.30;99.90
42479;DHT22;28110;47.080;9.476;2023-03-02T15:21:45;5.20;99.90
42479;DHT22;28110;47.080;9.476;2023-03-02T15:24:11;5.20;99.90
42479;DHT22;28110;47.080;9.476;2023-03-02T15:26:37;5.20;99.90
42479;DHT22;28110;47.080;9.476;2023-03-02T15:29:04;5.20;99.90
42479;DHT22;28110;47.080;9.476;2023-03-02T15:31:30;5.10;99.90
42479;DHT22;28110;47.080;9.476;2023-03-02T15:33:57;5.10;99.90
42479;DHT22;28110;47.080;9.476;2023-03-02T15:36:22;5.00;99.90
42479;DHT22;28110;47.080;9.476;2023-03-02T15:38:48;5.00;99.90
42479;DHT22;28110;47.080;9.476;2023-03-02T15:41:15;4.90;99.90
42479;DHT22;28110;47.080;9.476;2023-03-02T15:43:40;4.90;99.90
42479;DHT22;28110;47.080;9.476;2023-03-02T15:46:07;4.80;99.90
42479;DHT22;28110;47.080;9.476;2023-03-02T15:48:34;4.80;99.90
42479;DHT22;28110;47.080;9.476;2023-03-02T15:51:03;4.80;99.90
42479;DHT22;28110;47.080;9.476;2023-03-02T15:53:30;4.80;99.90
42479;DHT22;28110;47.080;9.476;2023-03-02T15:55:57;4.80;99.90
42479;DHT22;28110;47.080;9.476;2023-03-02T15:58:23;4.80;99.90
42479;DHT22;28110;47.080;9.476;2023-03-02T16:00:49;4.70;99.90
42479;DHT22;28110;47.080;9.476;2023-03-02T16:03:15;4.70;99.90
42479;DHT22;28110;47.080;9.476;2023-03-02T16:05:41;4.70;99.90
42479;DHT22;28110;47.080;9.476;2023-03-02T16:08:06;4.70;99.90
42479;DHT22;28110;47.080;9.476;2023-03-02T16:10:32;4.60;99.90
42479;DHT22;28110;47.080;9.476;2023-03-02T16:13:01;4.60;99.90
42479;DHT22;28110;47.080;9.476;2023-03-02T16:15:27;4.60;99.90
42479;DHT22;28110;47.080;9.476;2023-03-02T16:17:52;4.50;99.90
42479;DHT22;28110;47.080;9.476;2023-03-02T16:20:18;4.50;99.90
42479;DHT22;28110;47.080;9.476;2023-03-02T16:22:43;4.50;99.90
42479;DHT22;28110;47.080;9.476;2023-03-02T16:25:09;4.40;99.90
42479;DHT22;28110;47.080;9.476;2023-03-02T16:27:34;4.40;99.90
42479;DHT22;28110;47.080;9.476;2023-03-02T16:30:00;4.30;99.90
42479;DHT22;28110;47.080;9.476;2023-03-02T16:32:26;4.20;99.90
42479;DHT22;28110;47.080;9.476;2023-03-02T16:34:53;4.20;99.90
42479;DHT22;28110;47.080;9.476;2023-03-02T16:37:19;4.20;99.90
42479;DHT22;28110;47.080;9.476;2023-03-02T16:39:45;4.10;99.90
42479;DHT22;28110;47.080;9.476;2023-03-02T16:42:10;4.20;99.90
42479;DHT22;28110;47.080;9.476;2023-03-02T16:44:36;4.10;99.90
42479;DHT22;28110;47.080;9.476;2023-03-02T16:47:02;4.20;99.90
42479;DHT22;28110;47.080;9.476;2023-03-02T16:49:28;4.10;99.90
42479;DHT22;28110;47.080;9.476;2023-03-02T16:51:57;4.00;99.90
42479;DHT22;28110;47.080;9.476;2023-03-02T16:54:23;4.00;99.90
42479;DHT22;28110;47.080;9.476;2023-03-02T16:56:49;4.00;99.90